sensor_id;sensor_type;location;lat;lon;timestamp;temperature;humidity
42145;DHT22;27813;43.516;11.890;2024-01-27T00:02:22;8.40;93.30
42145;DHT22;27813;43.516;11.890;2024-01-27T00:06:27;8.50;93.20
42145;DHT22;27813;43.516;11.890;2024-01-27T00:10:31;8.50;93.20
42145;DHT22;27813;43.516;11.890;2024-01-27T00:14:38;8.50;93.20
42145;DHT22;27813;43.516;11.890;2024-01-27T00:18:43;8.50;93.10
42145;DHT22;27813;43.516;11.890;2024-01-27T00:22:47;8.50;93.10
42145;DHT22;27813;43.516;11.890;2024-01-27T00:26:51;8.40;93.10
42145;DHT22;27813;43.516;11.890;2024-01-27T00:30:55;8.40;93.10
42145;DHT22;27813;43.516;11.890;2024-01-27T00:34:59;8.50;93.10
42145;DHT22;27813;43.516;11.890;2024-01-27T00:39:03;8.40;93.10
42145;DHT22;27813;43.516;11.890;2024-01-27T00:43:08;8.40;93.10
42145;DHT22;27813;43.516;11.890;2024-01-27T00:47:12;8.40;93.10
42145;DHT22;27813;43.516;11.890;2024-01-27T00:51:15;8.40;93.10
42145;DHT22;27813;43.516;11.890;2024-01-27T00:55:19;8.40;93.10
42145;DHT22;27813;43.516;11.890;2024-01-27T00:59:23;8.40;93.10
42145;DHT22;27813;43.516;11.890;2024-01-27T01:03:27;8.40;93.10
42145;DHT22;27813;43.516;11.890;2024-01-27T01:07:35;8.40;93.10
42145;DHT22;27813;43.516;11.890;2024-01-27T01:11:42;8.40;93.10
42145;DHT22;27813;43.516;11.890;2024-01-27T01:15:46;8.40;93.20
42145;DHT22;27813;43.516;11.890;2024-01-27T01:19:50;8.40;93.20
42145;DHT22;27813;43.516;11.890;2024-01-27T01:23:54;8.40;93.10
42145;DHT22;27813;43.516;11.890;2024-01-27T01:27:58;8.30;93.10
42145;DHT22;27813;43.516;11.890;2024-01-27T01:32:02;8.40;93.10
42145;DHT22;27813;43.516;11.890;2024-01-27T01:36:06;8.30;93.10
42145;DHT22;27813;43.516;11.890;2024-01-27T01:40:13;8.30;93.10
42145;DHT22;27813;43.516;11.890;2024-01-27T01:44:19;8.30;93.10
42145;DHT22;27813;43.516;11.890;2024-01-27T01:48:23;8.20;93.10
42145;DHT22;27813;43.516;11.890;2024-01-27T01:52:27;8.20;93.10
42145;DHT22;27813;43.516;11.890;2024-01-27T01:56:31;8.20;93.10
42145;DHT22;27813;43.516;11.890;2024-01-27T02:00:36;8.20;93.10
42145;DHT22;27813;43.516;11.890;2024-01-27T02:04:41;8.10;93.10
42145;DHT22;27813;43.516;11.890;2024-01-27T02:08:45;8.10;93.00
42145;DHT22;27813;43.516;11.890;2024-01-27T02:12:49;8.10;92.90
42145;DHT22;27813;43.516;11.890;2024-01-27T02:16:54;8.10;92.90
42145;DHT22;27813;43.516;11.890;2024-01-27T02:20:58;8.10;92.90
42145;DHT22;27813;43.516;11.890;2024-01-27T02:25:02;8.10;92.90
42145;DHT22;27813;43.516;11.890;2024-01-27T02:29:07;8.00;92.90
42145;DHT22;27813;43.516;11.890;2024-01-27T02:33:11;8.00;92.80
42145;DHT22;27813;43.516;11.890;2024-01-27T02:37:15;8.00;92.80
42145;DHT22;27813;43.516;11.890;2024-01-27T02:41:19;8.00;92.70
42145;DHT22;27813;43.516;11.890;2024-01-27T02:45:23;8.00;92.60
42145;DHT22;27813;43.516;11.890;2024-01-27T02:49:27;8.00;92.50
42145;DHT22;27813;43.516;11.890;2024-01-27T02:53:31;7.80;92.40
42145;DHT22;27813;43.516;11.890;2024-01-27T02:57:35;7.60;92.50
42145;DHT22;27813;43.516;11.890;2024-01-27T03:06:03;7.50;92.90
42145;DHT22;27813;43.516;11.890;2024-01-27T03:10:09;7.40;92.90
42145;DHT22;27813;43.516;11.890;2024-01-27T03:14:14;7.30;92.90
42145;DHT22;27813;43.516;11.890;2024-01-27T03:18:18;7.20;92.90
42145;DHT22;27813;43.516;11.890;2024-01-27T03:22:23;7.10;93.10
42145;DHT22;27813;43.516;11.890;2024-01-27T03:26:27;7.00;93.10
42145;DHT22;27813;43.516;11.890;2024-01-27T03:30:31;7.00;93.20
42145;DHT22;27813;43.516;11.890;2024-01-27T03:34:36;6.90;93.20
42145;DHT22;27813;43.516;11.890;2024-01-27T03:38:41;6.90;93.40
42145;DHT22;27813;43.516;11.890;2024-01-27T03:42:45;6.90;93.30
42145;DHT22;27813;43.516;11.890;2024-01-27T03:46:49;6.90;93.30
42145;DHT22;27813;43.516;11.890;2024-01-27T03:50:54;6.80;93.20
42145;DHT22;27813;43.516;11.890;2024-01-27T03:54:59;6.70;92.90
42145;DHT22;27813;43.516;11.890;2024-01-27T03:59:03;6.50;92.60
42145;DHT22;27813;43.516;11.890;2024-01-27T04:03:10;6.30;92.60
42145;DHT22;27813;43.516;11.890;2024-01-27T04:07:14;6.10;92.60
42145;DHT22;27813;43.516;11.890;2024-01-27T04:11:21;6.00;92.70
42145;DHT22;27813;43.516;11.890;2024-01-27T04:15:26;5.90;92.60
42145;DHT22;27813;43.516;11.890;2024-01-27T04:19:31;5.70;92.10
42145;DHT22;27813;43.516;11.890;2024-01-27T04:23:35;5.40;91.80
42145;DHT22;27813;43.516;11.890;2024-01-27T04:27:41;5.20;92.30
42145;DHT22;27813;43.516;11.890;2024-01-27T04:31:48;5.10;92.40
42145;DHT22;27813;43.516;11.890;2024-01-27T04:35:53;5.00;92.40
42145;DHT22;27813;43.516;11.890;2024-01-27T04:39:57;4.80;92.20
42145;DHT22;27813;43.516;11.890;2024-01-27T04:44:02;4.70;92.30
42145;DHT22;27813;43.516;11.890;2024-01-27T04:48:06;4.80;93.20
42145;DHT22;27813;43.516;11.890;2024-01-27T04:52:10;4.90;93.00
42145;DHT22;27813;43.516;11.890;2024-01-27T04:56:14;4.80;92.80
42145;DHT22;27813;43.516;11.890;2024-01-27T05:00:19;4.70;92.80
42145;DHT22;27813;43.516;11.890;2024-01-27T05:04:24;4.70;92.80
42145;DHT22;27813;43.516;11.890;2024-01-27T05:08:30;4.60;92.90
42145;DHT22;27813;43.516;11.890;2024-01-27T05:12:34;4.50;92.80
42145;DHT22;27813;43.516;11.890;2024-01-27T05:16:38;4.40;92.50
42145;DHT22;27813;43.516;11.890;2024-01-27T05:20:42;4.20;92.40
42145;DHT22;27813;43.516;11.890;2024-01-27T05:24:46;4.10;92.60
42145;DHT22;27813;43.516;11.890;2024-01-27T05:28:50;4.00;92.80
42145;DHT22;27813;43.516;11.890;2024-01-27T05:32:54;3.90;92.80
42145;DHT22;27813;43.516;11.890;2024-01-27T05:36:58;3.80;92.50
42145;DHT22;27813;43.516;11.890;2024-01-27T05:41:03;3.60;92.40
42145;DHT22;27813;43.516;11.890;2024-01-27T05:45:08;3.50;92.40
42145;DHT22;27813;43.516;11.890;2024-01-27T05:49:13;3.40;92.50
42145;DHT22;27813;43.516;11.890;2024-01-27T05:53:18;3.30;92.10
42145;DHT22;27813;43.516;11.890;2024-01-27T05:57:22;3.10;92.10
42145;DHT22;27813;43.516;11.890;2024-01-27T06:01:27;3.00;92.40
42145;DHT22;27813;43.516;11.890;2024-01-27T06:05:31;2.90;92.70
42145;DHT22;27813;43.516;11.890;2024-01-27T06:09:37;2.90;92.80
42145;DHT22;27813;43.516;11.890;2024-01-27T06:13:41;2.80;92.70
42145;DHT22;27813;43.516;11.890;2024-01-27T06:17:47;2.70;92.60
42145;DHT22;27813;43.516;11.890;2024-01-27T06:21:51;2.50;92.20
42145;DHT22;27813;43.516;11.890;2024-01-27T06:25:55;2.40;92.30
42145;DHT22;27813;43.516;11.890;2024-01-27T06:29:59;2.50;92.90
42145;DHT22;27813;43.516;11.890;2024-01-27T06:34:03;2.50;92.80
42145;DHT22;27813;43.516;11.890;2024-01-27T06:38:07;2.40;92.30
42145;DHT22;27813;43.516;11.890;2024-01-27T06:42:12;2.40;92.50
42145;DHT22;27813;43.516;11.890;2024-01-27T06:46:16;2.40;92.50
42145;DHT22;27813;43.516;11.890;2024-01-27T06:50:20;2.30;92.60
42145;DHT22;27813;43.516;11.890;2024-01-27T06:54:24;2.20;92.80
42145;DHT22;27813;43.516;11.890;2024-01-27T06:58:28;2.30;93.20
42145;DHT22;27813;43.516;11.890;2024-01-27T07:02:34;2.40;93.30
42145;DHT22;27813;43.516;11.890;2024-01-27T07:06:38;2.50;93.30
42145;DHT22;27813;43.516;11.890;2024-01-27T07:10:42;2.50;93.20
42145;DHT22;27813;43.516;11.890;2024-01-27T07:14:47;2.60;93.30
42145;DHT22;27813;43.516;11.890;2024-01-27T07:18:51;2.70;93.10
42145;DHT22;27813;43.516;11.890;2024-01-27T07:22:56;2.70;93.10
42145;DHT22;27813;43.516;11.890;2024-01-27T07:27:01;2.50;92.70
42145;DHT22;27813;43.516;11.890;2024-01-27T07:31:05;2.40;92.70
42145;DHT22;27813;43.516;11.890;2024-01-27T07:35:20;2.30;93.10
42145;DHT22;27813;43.516;11.890;2024-01-27T07:39:25;2.20;93.20
42145;DHT22;27813;43.516;11.890;2024-01-27T07:43:29;2.30;93.50
42145;DHT22;27813;43.516;11.890;2024-01-27T07:47:33;2.40;93.50
42145;DHT22;27813;43.516;11.890;2024-01-27T07:51:37;2.40;93.50
42145;DHT22;27813;43.516;11.890;2024-01-27T07:55:42;2.50;93.80
42145;DHT22;27813;43.516;11.890;2024-01-27T07:59:46;2.60;93.90
42145;DHT22;27813;43.516;11.890;2024-01-27T08:03:50;2.80;93.80
42145;DHT22;27813;43.516;11.890;2024-01-27T08:07:55;2.90;94.00
42145;DHT22;27813;43.516;11.890;2024-01-27T08:11:59;3.20;94.20
42145;DHT22;27813;43.516;11.890;2024-01-27T08:16:05;3.30;94.40
42145;DHT22;27813;43.516;11.890;2024-01-27T08:20:12;3.40;94.30
42145;DHT22;27813;43.516;11.890;2024-01-27T08:24:16;3.60;94.50
42145;DHT22;27813;43.516;11.890;2024-01-27T08:28:21;3.70;94.40
42145;DHT22;27813;43.516;11.890;2024-01-27T08:32:25;3.90;94.40
42145;DHT22;27813;43.516;11.890;2024-01-27T08:36:30;4.00;94.60
42145;DHT22;27813;43.516;11.890;2024-01-27T08:40:34;4.10;94.40
42145;DHT22;27813;43.516;11.890;2024-01-27T08:44:39;4.20;94.40
42145;DHT22;27813;43.516;11.890;2024-01-27T08:48:43;4.30;94.60
42145;DHT22;27813;43.516;11.890;2024-01-27T08:52:48;4.40;94.70
42145;DHT22;27813;43.516;11.890;2024-01-27T08:56:52;4.50;94.80
42145;DHT22;27813;43.516;11.890;2024-01-27T09:00:56;4.60;94.80
42145;DHT22;27813;43.516;11.890;2024-01-27T09:05:00;4.70;94.70
42145;DHT22;27813;43.516;11.890;2024-01-27T09:09:05;4.90;94.80
42145;DHT22;27813;43.516;11.890;2024-01-27T09:13:09;4.90;94.80
42145;DHT22;27813;43.516;11.890;2024-01-27T09:17:13;5.00;94.80
42145;DHT22;27813;43.516;11.890;2024-01-27T09:21:17;5.10;94.70
42145;DHT22;27813;43.516;11.890;2024-01-27T09:25:29;5.20;94.60
42145;DHT22;27813;43.516;11.890;2024-01-27T09:29:35;5.20;94.60
42145;DHT22;27813;43.516;11.890;2024-01-27T09:33:39;5.30;94.60
42145;DHT22;27813;43.516;11.890;2024-01-27T09:37:43;5.40;94.70
42145;DHT22;27813;43.516;11.890;2024-01-27T09:41:50;5.50;94.60
42145;DHT22;27813;43.516;11.890;2024-01-27T09:45:55;5.50;94.70
42145;DHT22;27813;43.516;11.890;2024-01-27T09:50:04;5.60;94.80
42145;DHT22;27813;43.516;11.890;2024-01-27T09:54:09;5.70;94.80
42145;DHT22;27813;43.516;11.890;2024-01-27T09:58:13;5.90;94.60
42145;DHT22;27813;43.516;11.890;2024-01-27T10:02:21;5.90;94.50
42145;DHT22;27813;43.516;11.890;2024-01-27T10:06:26;6.00;94.50
42145;DHT22;27813;43.516;11.890;2024-01-27T10:10:40;6.10;94.50
42145;DHT22;27813;43.516;11.890;2024-01-27T10:14:45;6.20;94.50
42145;DHT22;27813;43.516;11.890;2024-01-27T10:19:01;6.30;94.50
42145;DHT22;27813;43.516;11.890;2024-01-27T10:23:11;6.40;94.20
42145;DHT22;27813;43.516;11.890;2024-01-27T10:27:17;6.50;94.10
42145;DHT22;27813;43.516;11.890;2024-01-27T10:31:37;6.70;94.00
42145;DHT22;27813;43.516;11.890;2024-01-27T10:35:43;6.70;94.10
42145;DHT22;27813;43.516;11.890;2024-01-27T10:39:47;6.90;94.00
42145;DHT22;27813;43.516;11.890;2024-01-27T10:43:52;7.00;94.10
42145;DHT22;27813;43.516;11.890;2024-01-27T10:47:58;7.20;93.90
42145;DHT22;27813;43.516;11.890;2024-01-27T10:52:08;7.20;93.60
42145;DHT22;27813;43.516;11.890;2024-01-27T10:56:15;7.30;93.60
42145;DHT22;27813;43.516;11.890;2024-01-27T11:00:20;7.30;93.70
42145;DHT22;27813;43.516;11.890;2024-01-27T11:04:25;7.40;93.80
42145;DHT22;27813;43.516;11.890;2024-01-27T11:08:31;7.50;93.60
42145;DHT22;27813;43.516;11.890;2024-01-27T11:12:38;7.60;93.50
42145;DHT22;27813;43.516;11.890;2024-01-27T11:16:43;7.70;93.40
42145;DHT22;27813;43.516;11.890;2024-01-27T11:20:53;7.80;93.40
42145;DHT22;27813;43.516;11.890;2024-01-27T11:25:17;7.90;93.40
42145;DHT22;27813;43.516;11.890;2024-01-27T11:29:21;7.90;93.40
42145;DHT22;27813;43.516;11.890;2024-01-27T11:33:25;8.10;93.40
42145;DHT22;27813;43.516;11.890;2024-01-27T11:37:31;8.20;93.20
42145;DHT22;27813;43.516;11.890;2024-01-27T11:41:35;8.30;93.30
42145;DHT22;27813;43.516;11.890;2024-01-27T11:45:39;8.50;93.20
42145;DHT22;27813;43.516;11.890;2024-01-27T11:49:51;8.60;93.00
42145;DHT22;27813;43.516;11.890;2024-01-27T11:53:59;8.60;92.90
42145;DHT22;27813;43.516;11.890;2024-01-27T11:58:04;8.70;93.10
42145;DHT22;27813;43.516;11.890;2024-01-27T12:02:09;8.80;92.90
42145;DHT22;27813;43.516;11.890;2024-01-27T12:06:13;8.90;92.80
42145;DHT22;27813;43.516;11.890;2024-01-27T12:10:19;9.00;92.70
42145;DHT22;27813;43.516;11.890;2024-01-27T12:14:24;9.00;92.60
42145;DHT22;27813;43.516;11.890;2024-01-27T12:18:30;9.10;92.60
42145;DHT22;27813;43.516;11.890;2024-01-27T12:22:35;9.30;92.40
42145;DHT22;27813;43.516;11.890;2024-01-27T12:26:41;9.20;92.10
42145;DHT22;27813;43.516;11.890;2024-01-27T12:30:46;9.30;92.20
42145;DHT22;27813;43.516;11.890;2024-01-27T12:34:51;9.40;92.20
42145;DHT22;27813;43.516;11.890;2024-01-27T12:39:00;9.40;92.10
42145;DHT22;27813;43.516;11.890;2024-01-27T12:43:07;9.50;92.10
42145;DHT22;27813;43.516;11.890;2024-01-27T12:47:12;9.70;91.80
42145;DHT22;27813;43.516;11.890;2024-01-27T12:51:17;9.70;91.60
42145;DHT22;27813;43.516;11.890;2024-01-27T12:55:21;9.70;91.60
42145;DHT22;27813;43.516;11.890;2024-01-27T12:59:26;9.80;91.60
42145;DHT22;27813;43.516;11.890;2024-01-27T13:03:30;9.90;91.60
42145;DHT22;27813;43.516;11.890;2024-01-27T13:07:34;10.00;91.40
42145;DHT22;27813;43.516;11.890;2024-01-27T13:11:38;10.10;91.30
42145;DHT22;27813;43.516;11.890;2024-01-27T13:15:42;10.20;91.40
42145;DHT22;27813;43.516;11.890;2024-01-27T13:19:47;10.30;91.10
42145;DHT22;27813;43.516;11.890;2024-01-27T13:23:52;10.40;91.00
42145;DHT22;27813;43.516;11.890;2024-01-27T13:27:57;10.40;90.80
42145;DHT22;27813;43.516;11.890;2024-01-27T13:32:01;10.40;90.80
42145;DHT22;27813;43.516;11.890;2024-01-27T13:36:08;10.40;90.90
42145;DHT22;27813;43.516;11.890;2024-01-27T13:40:12;10.40;90.70
42145;DHT22;27813;43.516;11.890;2024-01-27T13:44:18;10.50;90.60
42145;DHT22;27813;43.516;11.890;2024-01-27T13:48:23;10.60;90.50
42145;DHT22;27813;43.516;11.890;2024-01-27T13:52:28;10.50;90.40
42145;DHT22;27813;43.516;11.890;2024-01-27T13:56:34;10.50;90.50
42145;DHT22;27813;43.516;11.890;2024-01-27T14:00:38;10.50;90.50
42145;DHT22;27813;43.516;11.890;2024-01-27T14:04:42;10.50;90.40
42145;DHT22;27813;43.516;11.890;2024-01-27T14:08:46;10.50;90.20
42145;DHT22;27813;43.516;11.890;2024-01-27T14:12:50;10.50;90.30
42145;DHT22;27813;43.516;11.890;2024-01-27T14:16:54;10.50;90.40
42145;DHT22;27813;43.516;11.890;2024-01-27T14:20:58;10.40;90.30
42145;DHT22;27813;43.516;11.890;2024-01-27T14:25:03;10.50;90.20
42145;DHT22;27813;43.516;11.890;2024-01-27T14:29:11;10.40;90.20
42145;DHT22;27813;43.516;11.890;2024-01-27T14:33:15;10.40;90.30
42145;DHT22;27813;43.516;11.890;2024-01-27T14:37:27;10.40;90.30
42145;DHT22;27813;43.516;11.890;2024-01-27T14:41:31;10.50;90.40
42145;DHT22;27813;43.516;11.890;2024-01-27T14:45:36;10.50;90.20
42145;DHT22;27813;43.516;11.890;2024-01-27T14:49:40;10.50;90.10
42145;DHT22;27813;43.516;11.890;2024-01-27T14:53:49;10.60;89.90
42145;DHT22;27813;43.516;11.890;2024-01-27T14:57:53;10.50;89.80
42145;DHT22;27813;43.516;11.890;2024-01-27T15:01:58;10.40;89.90
42145;DHT22;27813;43.516;11.890;2024-01-27T15:06:02;10.40;89.90
42145;DHT22;27813;43.516;11.890;2024-01-27T15:10:07;10.30;90.10
42145;DHT22;27813;43.516;11.890;2024-01-27T15:14:11;10.30;90.00
42145;DHT22;27813;43.516;11.890;2024-01-27T15:18:15;10.30;89.90
42145;DHT22;27813;43.516;11.890;2024-01-27T15:22:24;10.20;89.80
42145;DHT22;27813;43.516;11.890;2024-01-27T15:26:28;10.10;89.90
42145;DHT22;27813;43.516;11.890;2024-01-27T15:30:35;10.00;90.00
42145;DHT22;27813;43.516;11.890;2024-01-27T15:34:39;9.90;90.10
42145;DHT22;27813;43.516;11.890;2024-01-27T15:38:43;9.90;90.30
42145;DHT22;27813;43.516;11.890;2024-01-27T15:42:47;9.80;90.20
42145;DHT22;27813;43.516;11.890;2024-01-27T15:46:52;9.70;90.30
42145;DHT22;27813;43.516;11.890;2024-01-27T15:50:56;9.50;90.40
42145;DHT22;27813;43.516;11.890;2024-01-27T15:55:01;9.40;90.50
42145;DHT22;27813;43.516;11.890;2024-01-27T15:59:05;9.20;90.60
42145;DHT22;27813;43.516;11.890;2024-01-27T16:03:10;9.00;90.80
42145;DHT22;27813;43.516;11.890;2024-01-27T16:07:14;8.90;90.90
42145;DHT22;27813;43.516;11.890;2024-01-27T16:11:21;8.70;90.90
42145;DHT22;27813;43.516;11.890;2024-01-27T16:15:25;8.40;90.90
42145;DHT22;27813;43.516;11.890;2024-01-27T16:19:31;8.20;91.20
42145;DHT22;27813;43.516;11.890;2024-01-27T16:23:37;7.90;91.30
42145;DHT22;27813;43.516;11.890;2024-01-27T16:27:42;7.60;91.30
42145;DHT22;27813;43.516;11.890;2024-01-27T16:31:46;7.40;91.30
42145;DHT22;27813;43.516;11.890;2024-01-27T16:35:51;7.00;91.10
42145;DHT22;27813;43.516;11.890;2024-01-27T16:39:55;6.90;91.30
42145;DHT22;27813;43.516;11.890;2024-01-27T16:44:00;6.70;91.70
42145;DHT22;27813;43.516;11.890;2024-01-27T16:48:04;6.60;91.80
42145;DHT22;27813;43.516;11.890;2024-01-27T16:52:10;6.40;91.70
42145;DHT22;27813;43.516;11.890;2024-01-27T16:56:18;6.20;91.70
42145;DHT22;27813;43.516;11.890;2024-01-27T17:00:23;6.10;91.80
42145;DHT22;27813;43.516;11.890;2024-01-27T17:04:32;5.90;91.70
42145;DHT22;27813;43.516;11.890;2024-01-27T17:08:37;5.70;91.70
42145;DHT22;27813;43.516;11.890;2024-01-27T17:12:41;5.50;92.10
42145;DHT22;27813;43.516;11.890;2024-01-27T17:16:46;5.50;92.20
42145;DHT22;27813;43.516;11.890;2024-01-27T17:20:52;5.50;92.40
42145;DHT22;27813;43.516;11.890;2024-01-27T17:24:57;5.50;92.10
42145;DHT22;27813;43.516;11.890;2024-01-27T17:29:06;5.40;92.40
42145;DHT22;27813;43.516;11.890;2024-01-27T17:33:12;5.40;92.20
42145;DHT22;27813;43.516;11.890;2024-01-27T17:37:17;5.20;91.70
42145;DHT22;27813;43.516;11.890;2024-01-27T17:41:22;4.90;91.60
42145;DHT22;27813;43.516;11.890;2024-01-27T17:45:29;4.80;91.90
42145;DHT22;27813;43.516;11.890;2024-01-27T17:49:33;4.60;91.70
42145;DHT22;27813;43.516;11.890;2024-01-27T17:53:37;4.50;91.90
42145;DHT22;27813;43.516;11.890;2024-01-27T17:57:42;4.50;92.20
42145;DHT22;27813;43.516;11.890;2024-01-27T18:01:54;4.40;91.90
42145;DHT22;27813;43.516;11.890;2024-01-27T18:05:58;4.30;91.80
42145;DHT22;27813;43.516;11.890;2024-01-27T18:10:04;4.20;91.90
42145;DHT22;27813;43.516;11.890;2024-01-27T18:14:11;4.00;91.90
42145;DHT22;27813;43.516;11.890;2024-01-27T18:18:16;3.90;92.00
42145;DHT22;27813;43.516;11.890;2024-01-27T18:22:20;3.70;91.70
42145;DHT22;27813;43.516;11.890;2024-01-27T18:26:25;3.50;91.40
42145;DHT22;27813;43.516;11.890;2024-01-27T18:30:29;3.40;91.60
42145;DHT22;27813;43.516;11.890;2024-01-27T18:34:34;3.40;91.70
42145;DHT22;27813;43.516;11.890;2024-01-27T18:38:39;3.30;91.80
42145;DHT22;27813;43.516;11.890;2024-01-27T18:42:47;3.40;92.30
42145;DHT22;27813;43.516;11.890;2024-01-27T18:47:02;3.40;92.10
42145;DHT22;27813;43.516;11.890;2024-01-27T18:51:26;3.20;91.70
42145;DHT22;27813;43.516;11.890;2024-01-27T18:55:31;3.00;91.40
42145;DHT22;27813;43.516;11.890;2024-01-27T18:59:46;2.80;91.50
42145;DHT22;27813;43.516;11.890;2024-01-27T19:03:53;2.70;91.80
42145;DHT22;27813;43.516;11.890;2024-01-27T19:08:01;2.70;91.80
42145;DHT22;27813;43.516;11.890;2024-01-27T19:12:09;2.60;91.80
42145;DHT22;27813;43.516;11.890;2024-01-27T19:16:13;2.50;91.60
42145;DHT22;27813;43.516;11.890;2024-01-27T19:20:18;2.50;91.80
42145;DHT22;27813;43.516;11.890;2024-01-27T19:24:22;2.50;91.70
42145;DHT22;27813;43.516;11.890;2024-01-27T19:28:26;2.40;91.60
42145;DHT22;27813;43.516;11.890;2024-01-27T19:32:31;2.40;92.10
42145;DHT22;27813;43.516;11.890;2024-01-27T19:36:38;2.50;91.80
42145;DHT22;27813;43.516;11.890;2024-01-27T19:40:42;2.40;92.00
42145;DHT22;27813;43.516;11.890;2024-01-27T19:45:08;2.30;91.90
42145;DHT22;27813;43.516;11.890;2024-01-27T19:49:12;2.20;91.40
42145;DHT22;27813;43.516;11.890;2024-01-27T19:53:16;1.90;91.20
42145;DHT22;27813;43.516;11.890;2024-01-27T19:57:20;1.90;91.70
42145;DHT22;27813;43.516;11.890;2024-01-27T20:01:24;1.90;92.00
42145;DHT22;27813;43.516;11.890;2024-01-27T20:05:30;1.90;91.70
42145;DHT22;27813;43.516;11.890;2024-01-27T20:09:34;1.70;91.40
42145;DHT22;27813;43.516;11.890;2024-01-27T20:13:39;1.70;91.70
42145;DHT22;27813;43.516;11.890;2024-01-27T20:17:45;1.60;91.90
42145;DHT22;27813;43.516;11.890;2024-01-27T20:21:50;1.60;92.10
42145;DHT22;27813;43.516;11.890;2024-01-27T20:25:54;1.70;92.00
42145;DHT22;27813;43.516;11.890;2024-01-27T20:29:59;1.70;92.60
42145;DHT22;27813;43.516;11.890;2024-01-27T20:34:03;1.90;92.90
42145;DHT22;27813;43.516;11.890;2024-01-27T20:38:08;2.00;92.40
42145;DHT22;27813;43.516;11.890;2024-01-27T20:42:13;1.90;92.10
42145;DHT22;27813;43.516;11.890;2024-01-27T20:46:17;1.70;92.00
42145;DHT22;27813;43.516;11.890;2024-01-27T20:50:22;1.60;92.00
42145;DHT22;27813;43.516;11.890;2024-01-27T20:54:29;1.50;92.30
42145;DHT22;27813;43.516;11.890;2024-01-27T20:58:35;1.50;92.40
42145;DHT22;27813;43.516;11.890;2024-01-27T21:02:41;1.60;92.10
42145;DHT22;27813;43.516;11.890;2024-01-27T21:06:46;1.50;92.10
42145;DHT22;27813;43.516;11.890;2024-01-27T21:10:52;1.40;91.80
42145;DHT22;27813;43.516;11.890;2024-01-27T21:14:57;1.20;91.60
42145;DHT22;27813;43.516;11.890;2024-01-27T21:19:02;1.20;92.10
42145;DHT22;27813;43.516;11.890;2024-01-27T21:23:08;1.20;92.10
42145;DHT22;27813;43.516;11.890;2024-01-27T21:27:12;1.10;92.10
42145;DHT22;27813;43.516;11.890;2024-01-27T21:31:16;1.10;92.40
42145;DHT22;27813;43.516;11.890;2024-01-27T21:35:22;1.10;92.70
42145;DHT22;27813;43.516;11.890;2024-01-27T21:39:26;1.20;92.80
42145;DHT22;27813;43.516;11.890;2024-01-27T21:43:32;1.10;92.40
42145;DHT22;27813;43.516;11.890;2024-01-27T21:47:36;1.00;92.30
42145;DHT22;27813;43.516;11.890;2024-01-27T21:51:49;0.90;92.20
42145;DHT22;27813;43.516;11.890;2024-01-27T21:55:54;0.80;92.10
42145;DHT22;27813;43.516;11.890;2024-01-27T21:59:59;0.80;92.30
42145;DHT22;27813;43.516;11.890;2024-01-27T22:04:13;0.70;92.20
42145;DHT22;27813;43.516;11.890;2024-01-27T22:08:18;0.80;92.50
42145;DHT22;27813;43.516;11.890;2024-01-27T22:12:24;0.90;92.40
42145;DHT22;27813;43.516;11.890;2024-01-27T22:16:29;0.90;92.10
42145;DHT22;27813;43.516;11.890;2024-01-27T22:20:34;0.80;92.00
42145;DHT22;27813;43.516;11.890;2024-01-27T22:24:39;0.90;92.50
42145;DHT22;27813;43.516;11.890;2024-01-27T22:28:44;0.90;92.50
42145;DHT22;27813;43.516;11.890;2024-01-27T22:32:48;0.90;92.50
42145;DHT22;27813;43.516;11.890;2024-01-27T22:36:55;0.90;92.50
42145;DHT22;27813;43.516;11.890;2024-01-27T22:41:00;1.00;92.80
42145;DHT22;27813;43.516;11.890;2024-01-27T22:45:08;0.90;92.10
42145;DHT22;27813;43.516;11.890;2024-01-27T22:49:13;0.90;92.30
42145;DHT22;27813;43.516;11.890;2024-01-27T22:53:22;0.90;92.10
42145;DHT22;27813;43.516;11.890;2024-01-27T22:57:28;0.90;92.00
42145;DHT22;27813;43.516;11.890;2024-01-27T23:01:39;0.80;91.80
42145;DHT22;27813;43.516;11.890;2024-01-27T23:06:04;0.70;91.70
42145;DHT22;27813;43.516;11.890;2024-01-27T23:10:09;0.60;91.80
42145;DHT22;27813;43.516;11.890;2024-01-27T23:14:15;0.40;91.50
42145;DHT22;27813;43.516;11.890;2024-01-27T23:18:22;0.40;92.00
42145;DHT22;27813;43.516;11.890;2024-01-27T23:22:26;0.40;92.20
42145;DHT22;27813;43.516;11.890;2024-01-27T23:26:30;0.40;92.10
42145;DHT22;27813;43.516;11.890;2024-01-27T23:30:34;0.40;92.30
42145;DHT22;27813;43.516;11.890;2024-01-27T23:34:40;0.40;92.40
42145;DHT22;27813;43.516;11.890;2024-01-27T23:38:44;0.40;92.30
42145;DHT22;27813;43.516;11.890;2024-01-27T23:42:48;0.40;92.60
42145;DHT22;27813;43.516;11.890;2024-01-27T23:46:53;0.50;93.00
42145;DHT22;27813;43.516;11.890;2024-01-27T23:50:57;0.90;93.70
42145;DHT22;27813;43.516;11.890;2024-01-27T23:55:04;1.30;93.90
42145;DHT22;27813;43.516;11.890;2024-01-27T23:59:10;1.50;93.60
